Time;durP1;ratioP1;P1;durP2;ratioP2;P2;SDS_P1;SDS_P2;PMS_P1;PMS_P2;Temp;Humidity;BMP_temperature;BMP_pressure;BME280_temperature;BME280_humidity;BME280_pressure;Samples;Min_cycle;Max_cycle;Signal;HPM_P1;HPM_P2
2024/01/18 00:00:46;;;;;;;1999.90;999.90;;;-2.40;99.90;;;;;;5030104;28;20039;-78
2024/01/18 00:03:12;;;;;;;1999.90;999.90;;;-2.40;99.90;;;;;;5014091;28;20037;-77
2024/01/18 00:05:37;;;;;;;1999.90;999.90;;;-2.40;99.90;;;;;;5030911;28;20029;-77
2024/01/18 00:08:03;;;;;;;1999.90;999.90;;;-2.40;99.90;;;;;;5029926;28;20038;-77
2024/01/18 00:10:29;;;;;;;1999.90;999.90;;;-2.40;99.90;;;;;;5030234;28;20048;-77
2024/01/18 00:12:55;;;;;;;1999.90;999.90;;;-2.40;99.90;;;;;;5030459;28;20679;-77
2024/01/18 00:15:21;;;;;;;1999.90;999.90;;;-2.30;99.90;;;;;;5013927;28;20042;-77
2024/01/18 00:17:47;;;;;;;1999.90;999.90;;;-2.30;99.90;;;;;;5029949;28;20430;-78
2024/01/18 00:20:14;;;;;;;1999.90;999.90;;;-2.30;99.90;;;;;;5013437;28;20089;-77
2024/01/18 00:22:39;;;;;;;1999.90;999.90;;;-2.30;99.90;;;;;;5030585;28;20049;-77
2024/01/18 00:25:07;;;;;;;1999.90;999.90;;;-2.30;99.90;;;;;;5013643;28;20029;-78
2024/01/18 00:27:32;;;;;;;1999.90;999.90;;;-2.30;99.90;;;;;;5013744;28;20509;-77
2024/01/18 00:29:58;;;;;;;1999.90;999.90;;;-2.30;99.90;;;;;;5013407;28;20040;-77
2024/01/18 00:32:23;;;;;;;1999.90;999.90;;;-2.30;99.90;;;;;;5028742;28;20444;-78
2024/01/18 00:34:49;;;;;;;1999.90;999.90;;;-2.40;99.90;;;;;;5030011;28;20040;-76
2024/01/18 00:37:14;;;;;;;1999.90;999.90;;;-2.40;99.90;;;;;;5013437;28;20516;-78
2024/01/18 00:39:41;;;;;;;1999.90;999.90;;;-2.40;99.90;;;;;;5029490;28;20095;-78
2024/01/18 00:42:07;;;;;;;1999.90;999.90;;;-2.50;99.90;;;;;;5013084;28;20040;-77
2024/01/18 00:44:33;;;;;;;1999.90;999.90;;;-2.60;99.90;;;;;;5029906;28;20394;-77
2024/01/18 00:46:58;;;;;;;1999.90;999.90;;;-2.60;99.90;;;;;;5029529;28;20553;-77
2024/01/18 00:49:24;;;;;;;1999.90;999.90;;;-2.60;99.90;;;;;;5030072;28;20076;-77
2024/01/18 00:51:49;;;;;;;1999.90;999.90;;;-2.60;99.90;;;;;;5013081;28;20072;-77
2024/01/18 00:54:15;;;;;;;1999.90;999.90;;;-2.60;99.90;;;;;;5012970;28;20045;-77
2024/01/18 00:56:41;;;;;;;1999.90;999.90;;;-2.60;99.90;;;;;;5013144;28;20502;-77
2024/01/18 00:59:07;;;;;;;1999.90;999.90;;;-2.60;99.90;;;;;;5029170;28;20045;-77
2024/01/18 01:01:33;;;;;;;1999.90;999.90;;;-2.60;99.90;;;;;;5012738;28;20499;-77
2024/01/18 01:03:58;;;;;;;1999.90;999.90;;;-2.60;99.90;;;;;;5029756;28;20052;-78
2024/01/18 01:06:24;;;;;;;1999.90;999.90;;;-2.50;99.90;;;;;;5012954;28;20040;-78
2024/01/18 01:08:50;;;;;;;1999.90;999.90;;;-2.40;99.90;;;;;;5012697;28;20578;-78
2024/01/18 01:11:17;;;;;;;1999.90;999.90;;;-2.40;99.90;;;;;;5015637;28;20044;-77
2024/01/18 01:13:43;;;;;;;1999.90;999.90;;;-2.30;99.90;;;;;;5012809;28;20048;-78
2024/01/18 01:16:09;;;;;;;1999.90;999.90;;;-2.30;99.90;;;;;;5012607;28;20033;-78
2024/01/18 01:18:34;;;;;;;1999.90;999.90;;;-2.30;99.90;;;;;;5029270;28;20775;-77
2024/01/18 01:21:00;;;;;;;1999.90;999.90;;;-2.30;99.90;;;;;;5029531;28;20055;-78
2024/01/18 01:23:25;;;;;;;1999.90;999.90;;;-2.30;99.90;;;;;;5013131;28;20041;-77
2024/01/18 01:25:51;;;;;;;1999.90;999.90;;;-2.30;99.90;;;;;;5012802;28;20040;-78
2024/01/18 01:28:17;;;;;;;1999.90;999.90;;;-2.30;99.90;;;;;;5012380;28;20446;-77
2024/01/18 01:30:43;;;;;;;1999.90;999.90;;;-2.40;99.90;;;;;;5011296;28;20046;-77
2024/01/18 01:33:08;;;;;;;1999.90;999.90;;;-2.30;99.90;;;;;;5029631;28;20068;-78
2024/01/18 01:35:34;;;;;;;1999.90;999.90;;;-2.30;99.90;;;;;;5029558;28;20068;-78
2024/01/18 01:37:59;;;;;;;1999.90;999.90;;;-2.30;99.90;;;;;;5013106;28;20565;-77
2024/01/18 01:40:25;;;;;;;1999.90;999.90;;;-2.40;99.90;;;;;;5029350;28;20071;-77
2024/01/18 01:42:51;;;;;;;1999.90;999.90;;;-2.40;99.90;;;;;;5013068;28;20037;-78
2024/01/18 01:45:16;;;;;;;1999.90;999.90;;;-2.40;99.90;;;;;;5029084;28;20049;-78
2024/01/18 01:47:42;;;;;;;1999.90;999.90;;;-2.50;99.90;;;;;;5028968;28;20041;-78
2024/01/18 01:50:08;;;;;;;1999.90;999.90;;;-2.50;99.90;;;;;;5012356;28;20055;-78
2024/01/18 01:52:36;;;;;;;1999.90;999.90;;;-2.50;99.90;;;;;;5012724;28;20038;-77
2024/01/18 01:55:02;;;;;;;1999.90;999.90;;;-2.50;99.90;;;;;;5028850;28;20045;-76
2024/01/18 01:57:29;;;;;;;1999.90;999.90;;;-2.50;99.90;;;;;;5028884;28;20040;-77
2024/01/18 01:59:55;;;;;;;1999.90;999.90;;;-2.50;99.90;;;;;;5029200;28;20049;-76
2024/01/18 02:02:24;;;;;;;1999.90;999.90;;;-2.50;99.90;;;;;;5028749;28;20038;-77
2024/01/18 02:04:51;;;;;;;1999.90;999.90;;;-2.50;99.90;;;;;;5029668;28;20380;-78
2024/01/18 02:07:17;;;;;;;1999.90;999.90;;;-2.40;99.90;;;;;;5031634;28;20037;-77
2024/01/18 02:09:43;;;;;;;1999.90;999.90;;;-2.40;99.90;;;;;;5015688;28;20029;-77
2024/01/18 02:12:10;;;;;;;1999.90;999.90;;;-2.30;99.90;;;;;;5032208;28;20060;-76
2024/01/18 02:14:37;;;;;;;1999.90;999.90;;;-2.30;99.90;;;;;;5015761;28;20048;-77
2024/01/18 02:17:04;;;;;;;1999.90;999.90;;;-1.20;99.90;;;;;;5032282;28;20437;-77
2024/01/18 02:19:30;;;;;;;1999.90;999.90;;;-2.20;99.90;;;;;;5033081;28;20046;-77
2024/01/18 02:21:57;;;;;;;1999.90;999.90;;;-2.20;99.90;;;;;;5032852;28;20079;-76
2024/01/18 02:24:32;;;;;;;1999.90;999.90;;;-2.20;99.90;;;;;;5032245;28;20409;-77
2024/01/18 02:26:58;;;;;;;1999.90;999.90;;;-2.30;99.90;;;;;;5029195;28;20037;-76
2024/01/18 02:29:24;;;;;;;1999.90;999.90;;;-2.30;99.90;;;;;;5015445;28;20121;-76
2024/01/18 02:31:49;;;;;;;1999.90;999.90;;;-2.30;99.90;;;;;;5031969;28;20037;-76
2024/01/18 02:34:17;;;;;;;1999.90;999.90;;;-2.30;99.90;;;;;;5032216;28;20045;-78
2024/01/18 02:36:44;;;;;;;1999.90;999.90;;;-2.30;99.90;;;;;;5033088;28;20134;-79
2024/01/18 02:39:10;;;;;;;1999.90;999.90;;;-2.30;99.90;;;;;;5037925;28;20543;-76
2024/01/18 02:41:37;;;;;;;1999.90;999.90;;;-2.30;99.90;;;;;;5034491;28;20097;-76
2024/01/18 02:44:02;;;;;;;1999.90;999.90;;;-2.30;99.90;;;;;;5032263;28;20136;-76
2024/01/18 02:46:32;;;;;;;1999.90;999.90;;;-2.40;99.90;;;;;;5032154;28;20530;-76
2024/01/18 02:48:58;;;;;;;1999.90;999.90;;;-2.40;99.90;;;;;;5015485;28;20036;-76
2024/01/18 02:51:23;;;;;;;1999.90;999.90;;;-2.40;99.90;;;;;;5031442;28;20394;-76
2024/01/18 02:53:49;;;;;;;1999.90;999.90;;;-2.50;99.90;;;;;;5030903;28;20047;-76
2024/01/18 02:56:14;;;;;;;1999.90;999.90;;;-2.50;99.90;;;;;;5015352;28;20684;-76
2024/01/18 02:58:40;;;;;;;1999.90;999.90;;;-2.50;99.90;;;;;;5032134;28;20037;-79
2024/01/18 03:01:06;;;;;;;1999.90;999.90;;;-2.50;99.90;;;;;;5015600;28;20056;-77
2024/01/18 03:03:34;;;;;;;1999.90;999.90;;;-2.60;99.90;;;;;;5015314;28;20029;-77
2024/01/18 03:06:00;;;;;;;1999.90;999.90;;;-2.60;99.90;;;;;;5018637;28;20029;-77
2024/01/18 03:08:25;;;;;;;1999.90;999.90;;;-2.60;99.90;;;;;;5031185;28;20490;-77
2024/01/18 03:10:51;;;;;;;1999.90;999.90;;;-2.60;99.90;;;;;;5031140;28;20060;-77
2024/01/18 03:13:17;;;;;;;1999.90;999.90;;;-2.60;99.90;;;;;;5014925;28;20044;-77
2024/01/18 03:15:42;;;;;;;1999.90;999.90;;;-2.70;99.90;;;;;;5014992;28;20036;-76
2024/01/18 03:18:08;;;;;;;1999.90;999.90;;;-2.70;99.90;;;;;;5014626;28;20722;-76
2024/01/18 03:20:34;;;;;;;1999.90;999.90;;;-2.70;99.90;;;;;;5013713;28;20128;-77
2024/01/18 03:23:00;;;;;;;1999.90;999.90;;;-2.70;99.90;;;;;;5031137;28;20034;-76
2024/01/18 03:25:26;;;;;;;1999.90;999.90;;;-2.80;99.90;;;;;;5031451;28;20033;-76
2024/01/18 03:27:52;;;;;;;1999.90;999.90;;;-2.20;99.90;;;;;;5014500;28;20091;-76
2024/01/18 03:30:17;;;;;;;1999.90;999.90;;;-2.90;99.90;;;;;;5030829;28;20486;-76
2024/01/18 03:32:43;;;;;;;1999.90;999.90;;;-2.80;99.90;;;;;;5014755;28;20621;-76
2024/01/18 03:35:08;;;;;;;1999.90;999.90;;;-2.80;99.90;;;;;;5033995;28;20148;-76
2024/01/18 03:37:34;;;;;;;1999.90;999.90;;;-2.80;99.90;;;;;;5026582;28;20068;-76
2024/01/18 03:39:59;;;;;;;1999.90;999.90;;;-2.80;99.90;;;;;;5031210;28;20069;-76
2024/01/18 03:42:25;;;;;;;1999.90;999.90;;;-2.90;99.90;;;;;;5030550;28;20041;-77
2024/01/18 03:44:51;;;;;;;1999.90;999.90;;;-2.90;99.90;;;;;;5030824;28;20037;-76
2024/01/18 03:47:16;;;;;;;1999.90;999.90;;;-2.90;99.90;;;;;;5030437;28;20509;-76
2024/01/18 03:49:43;;;;;;;1999.90;999.90;;;-2.90;99.90;;;;;;5030796;28;20060;-76
2024/01/18 03:52:10;;;;;;;1999.90;999.90;;;-2.90;99.90;;;;;;5030700;28;20034;-77
2024/01/18 03:54:35;;;;;;;1999.90;999.90;;;-2.80;99.90;;;;;;5030770;28;20437;-77
2024/01/18 03:57:01;;;;;;;1999.90;999.90;;;-1.60;99.90;;;;;;5030494;28;20064;-76
2024/01/18 03:59:26;;;;;;;1999.90;999.90;;;-2.70;99.90;;;;;;5030750;28;20042;-76
2024/01/18 04:01:52;;;;;;;1999.90;999.90;;;-2.60;99.90;;;;;;5030671;28;20044;-77
2024/01/18 04:04:18;;;;;;;1999.90;999.90;;;-2.50;99.90;;;;;;5014067;28;20041;-76
2024/01/18 04:06:43;;;;;;;1999.90;999.90;;;-2.40;99.90;;;;;;5013871;28;20029;-77
2024/01/18 04:09:09;;;;;;;1999.90;999.90;;;-2.40;99.90;;;;;;5029918;28;20037;-75
2024/01/18 04:11:35;;;;;;;1999.90;999.90;;;-2.30;99.90;;;;;;5030264;28;20148;-76
2024/01/18 04:14:00;;;;;;;1999.90;999.90;;;-2.30;99.90;;;;;;5013784;28;20088;-77
2024/01/18 04:16:26;;;;;;;1999.90;999.90;;;-2.30;99.90;;;;;;5030211;28;20042;-77
2024/01/18 04:18:52;;;;;;;1999.90;999.90;;;-2.30;99.90;;;;;;5029845;28;20041;-77
2024/01/18 04:21:17;;;;;;;1999.90;999.90;;;-2.20;99.90;;;;;;5029677;28;20061;-76
2024/01/18 04:23:43;;;;;;;1999.90;999.90;;;-2.20;99.90;;;;;;5029958;28;20064;-76
2024/01/18 04:26:08;;;;;;;1999.90;999.90;;;-2.10;99.90;;;;;;5013133;28;20030;-76
2024/01/18 04:28:34;;;;;;;1999.90;999.90;;;-2.00;99.90;;;;;;5013810;28;20116;-76
2024/01/18 04:31:00;;;;;;;1999.90;999.90;;;-1.90;99.90;;;;;;5029174;28;20117;-76
2024/01/18 04:33:25;;;;;;;1999.90;999.90;;;-1.70;99.90;;;;;;5029764;28;20410;-76
2024/01/18 04:35:51;;;;;;;1999.90;999.90;;;-1.60;99.90;;;;;;5029852;28;20037;-77
2024/01/18 04:38:17;;;;;;;1999.90;999.90;;;-1.50;99.90;;;;;;5029497;28;20041;-77
2024/01/18 04:40:43;;;;;;;1999.90;999.90;;;-1.40;99.90;;;;;;5029986;28;20037;-77
2024/01/18 04:43:09;;;;;;;1999.90;999.90;;;-1.30;99.90;;;;;;5013072;28;20079;-76
2024/01/18 04:45:35;;;;;;;1999.90;999.90;;;-1.30;99.90;;;;;;5029659;28;20041;-76
2024/01/18 04:48:01;;;;;;;1999.90;999.90;;;-1.30;99.90;;;;;;5029484;28;20037;-76
2024/01/18 04:50:26;;;;;;;1999.90;999.90;;;-1.30;99.90;;;;;;5029683;28;20516;-76
2024/01/18 04:52:52;;;;;;;1999.90;999.90;;;-1.30;99.90;;;;;;5029415;28;20096;-77
2024/01/18 04:55:18;;;;;;;1999.90;999.90;;;-1.30;99.90;;;;;;5029269;28;20049;-76
2024/01/18 04:57:45;;;;;;;1999.90;999.90;;;-1.30;99.90;;;;;;5030025;28;20041;-76
2024/01/18 05:00:11;;;;;;;1999.90;999.90;;;-1.40;99.90;;;;;;5029892;28;20063;-77
2024/01/18 05:02:40;;;;;;;1999.90;999.90;;;-1.40;99.90;;;;;;5013322;28;20402;-76
2024/01/18 05:05:08;;;;;;;1999.90;999.90;;;-1.50;99.90;;;;;;5029624;28;20517;-77
2024/01/18 05:07:44;;;;;;;1999.90;999.90;;;-1.50;99.90;;;;;;5012617;28;20037;-77
2024/01/18 05:10:10;;;;;;;1999.90;999.90;;;-1.60;99.90;;;;;;5012662;28;20038;-76
2024/01/18 05:12:37;;;;;;;1999.90;999.90;;;-1.70;99.90;;;;;;5012986;28;20085;-77
2024/01/18 05:15:03;;;;;;;1999.90;999.90;;;-1.40;99.90;;;;;;5029266;28;20054;-77
2024/01/18 05:17:35;;;;;;;1999.90;999.90;;;-1.90;99.90;;;;;;5012488;28;20045;-78
2024/01/18 05:20:06;;;;;;;1999.90;999.90;;;-1.90;99.90;;;;;;5029197;28;20049;-77
2024/01/18 05:22:32;;;;;;;1999.90;999.90;;;-2.00;99.90;;;;;;5012480;28;20048;-77
2024/01/18 05:24:59;;;;;;;1999.90;999.90;;;-2.00;99.90;;;;;;5029334;28;20029;-77
2024/01/18 05:27:28;;;;;;;1999.90;999.90;;;-2.20;99.90;;;;;;5029178;28;20033;-78
2024/01/18 05:29:54;;;;;;;1999.90;999.90;;;-2.20;99.90;;;;;;5029128;28;20064;-78
2024/01/18 05:32:22;;;;;;;1999.90;999.90;;;-2.20;99.90;;;;;;5012671;28;20124;-78
2024/01/18 05:34:51;;;;;;;1999.90;999.90;;;-2.20;99.90;;;;;;5012828;28;20041;-78
2024/01/18 05:37:18;;;;;;;1999.90;999.90;;;-2.30;99.90;;;;;;5028773;28;20096;-77
2024/01/18 05:39:44;;;;;;;1999.90;999.90;;;-1.40;99.90;;;;;;5028885;28;20042;-77
2024/01/18 05:42:10;;;;;;;1999.90;999.90;;;-2.30;99.90;;;;;;5029121;28;20558;-78
2024/01/18 05:44:36;;;;;;;1999.90;999.90;;;-2.30;99.90;;;;;;5031910;28;20060;-78
2024/01/18 05:47:02;;;;;;;1999.90;999.90;;;-2.10;99.90;;;;;;5032766;28;20099;-78
2024/01/18 05:49:28;;;;;;;1999.90;999.90;;;-2.00;99.90;;;;;;5016194;28;20048;-78
2024/01/18 05:51:53;;;;;;;1999.90;999.90;;;-2.00;99.90;;;;;;5032699;28;20029;-77
2024/01/18 05:54:19;;;;;;;1999.90;999.90;;;-2.00;99.90;;;;;;5032933;28;20120;-77
2024/01/18 05:56:48;;;;;;;1999.90;999.90;;;-1.90;99.90;;;;;;5016929;28;20044;-77
2024/01/18 05:59:16;;;;;;;1999.90;999.90;;;-2.10;99.90;;;;;;5016636;28;20048;-77
2024/01/18 06:01:42;;;;;;;1999.90;999.90;;;-2.10;99.90;;;;;;5033192;28;20034;-78
2024/01/18 06:04:08;;;;;;;1999.90;999.90;;;-2.20;99.90;;;;;;5033152;28;20032;-77
2024/01/18 06:06:33;;;;;;;1999.90;999.90;;;-2.20;99.90;;;;;;5016843;28;20108;-77
2024/01/18 06:08:59;;;;;;;1999.90;999.90;;;-2.20;99.90;;;;;;5032452;28;20041;-77
2024/01/18 06:11:25;;;;;;;1999.90;999.90;;;-2.20;99.90;;;;;;5022865;28;20046;-78
2024/01/18 06:13:51;;;;;;;1999.90;999.90;;;-2.20;99.90;;;;;;5022307;28;20125;-76
2024/01/18 06:16:16;;;;;;;1999.90;999.90;;;-2.20;99.90;;;;;;5037790;28;20148;-80
2024/01/18 06:18:42;;;;;;;1999.90;999.90;;;-2.20;99.90;;;;;;5024539;28;20033;-80
2024/01/18 06:21:09;;;;;;;1999.90;999.90;;;-2.10;99.90;;;;;;5021686;28;20502;-79
2024/01/18 06:23:35;;;;;;;1999.90;999.90;;;-2.00;99.90;;;;;;5019937;28;20034;-79
2024/01/18 06:26:01;;;;;;;1999.90;999.90;;;-2.00;99.90;;;;;;5036843;28;20033;-79
2024/01/18 06:28:27;;;;;;;1999.90;999.90;;;-2.00;99.90;;;;;;5019483;28;20052;-78
2024/01/18 06:30:53;;;;;;;1999.90;999.90;;;-2.00;99.90;;;;;;5020633;28;20029;-79
2024/01/18 06:33:19;;;;;;;1999.90;999.90;;;-2.00;99.90;;;;;;5036523;28;20037;-79
2024/01/18 06:35:45;;;;;;;1999.90;999.90;;;-2.00;99.90;;;;;;5019934;28;20528;-80
2024/01/18 06:38:13;;;;;;;1999.90;999.90;;;-2.70;99.90;;;;;;5019314;28;20041;-79
2024/01/18 06:40:40;;;;;;;1999.90;999.90;;;-2.00;99.90;;;;;;5020082;28;20041;-79
2024/01/18 06:43:06;;;;;;;1999.90;999.90;;;-2.00;99.90;;;;;;5036242;28;20535;-78
2024/01/18 06:45:31;;;;;;;1999.90;999.90;;;-2.00;99.90;;;;;;5034718;28;20073;-77
2024/01/18 06:47:57;;;;;;;1999.90;999.90;;;-2.00;99.90;;;;;;5014569;28;20065;-77
2024/01/18 06:50:23;;;;;;;1999.90;999.90;;;-2.00;99.90;;;;;;5030785;28;20041;-78
2024/01/18 06:52:48;;;;;;;1999.90;999.90;;;-2.10;99.90;;;;;;5030972;28;20047;-78
2024/01/18 06:55:14;;;;;;;1999.90;999.90;;;-2.10;99.90;;;;;;5014603;28;20073;-77
2024/01/18 06:57:40;;;;;;;1999.90;999.90;;;-2.10;99.90;;;;;;5014658;28;20033;-77
2024/01/18 07:00:06;;;;;;;1999.90;999.90;;;-2.20;99.90;;;;;;5031291;28;20039;-78
2024/01/18 07:02:33;;;;;;;1999.90;999.90;;;-2.20;99.90;;;;;;5017078;28;20075;-79
2024/01/18 07:04:59;;;;;;;1999.90;999.90;;;-2.20;99.90;;;;;;5018611;28;20033;-78
2024/01/18 07:07:25;;;;;;;1999.90;999.90;;;-2.30;99.90;;;;;;5018654;28;20100;-80
2024/01/18 07:09:51;;;;;;;1999.90;999.90;;;-2.30;99.90;;;;;;5018585;28;20038;-78
2024/01/18 07:12:17;;;;;;;1999.90;999.90;;;-2.30;99.90;;;;;;5019628;28;20528;-79
2024/01/18 07:14:42;;;;;;;1999.90;999.90;;;-2.40;99.90;;;;;;5018313;28;20042;-79
2024/01/18 07:17:10;;;;;;;1999.90;999.90;;;-2.40;99.90;;;;;;5019478;28;20576;-80
2024/01/18 07:19:36;;;;;;;1999.90;999.90;;;-2.40;99.90;;;;;;5019037;28;20034;-79
2024/01/18 07:22:02;;;;;;;1999.90;999.90;;;-2.40;99.90;;;;;;5018381;28;20110;-79
2024/01/18 07:24:30;;;;;;;1999.90;999.90;;;-2.40;99.90;;;;;;5034625;28;20041;-79
2024/01/18 07:26:56;;;;;;;1999.90;999.90;;;-2.40;99.90;;;;;;5018857;28;20041;-79
2024/01/18 07:29:22;;;;;;;1999.90;999.90;;;-2.30;99.90;;;;;;5026531;28;20068;-78
2024/01/18 07:31:48;;;;;;;1999.90;999.90;;;-2.20;99.90;;;;;;5024595;28;20036;-79
2024/01/18 07:34:15;;;;;;;1999.90;999.90;;;-2.20;99.90;;;;;;5035935;28;20071;-79
2024/01/18 07:36:41;;;;;;;1999.90;999.90;;;-2.20;99.90;;;;;;5023505;28;20037;-79
2024/01/18 07:39:07;;;;;;;1999.90;999.90;;;-2.10;99.90;;;;;;5017517;28;20410;-79
2024/01/18 07:41:32;;;;;;;1999.90;999.90;;;-2.10;99.90;;;;;;5019332;28;20102;-79
2024/01/18 07:43:58;;;;;;;1999.90;999.90;;;-2.10;99.90;;;;;;5018346;28;20105;-79
2024/01/18 07:46:23;;;;;;;1999.90;999.90;;;-2.00;99.90;;;;;;5016800;28;20037;-78
2024/01/18 07:48:49;;;;;;;1999.90;999.90;;;-1.90;99.90;;;;;;5034043;28;20041;-79
2024/01/18 07:51:17;;;;;;;1999.90;999.90;;;-1.90;99.90;;;;;;5032565;28;20437;-78
2024/01/18 07:53:42;;;;;;;1999.90;999.90;;;-1.80;99.90;;;;;;5032245;28;20029;-79
2024/01/18 07:56:08;;;;;;;1999.90;999.90;;;-1.70;99.90;;;;;;5032102;28;20034;-79
2024/01/18 07:58:33;;;;;;;1999.90;999.90;;;-1.60;99.90;;;;;;5032122;28;20043;-78
2024/01/18 08:00:59;;;;;;;1999.90;999.90;;;-1.60;99.90;;;;;;5031195;28;20048;-77
2024/01/18 08:03:27;;;;;;;1999.90;999.90;;;-1.80;99.90;;;;;;5031765;28;20034;-78
2024/01/18 08:05:52;;;;;;;1999.90;999.90;;;-1.70;99.90;;;;;;5023879;28;20234;-78
2024/01/18 08:08:18;;;;;;;1999.90;999.90;;;-1.70;99.90;;;;;;5018799;28;20044;-78
2024/01/18 08:10:44;;;;;;;1999.90;999.90;;;-1.80;99.90;;;;;;5014441;28;20049;-79
2024/01/18 08:13:09;;;;;;;1999.90;999.90;;;-1.80;99.90;;;;;;5032016;28;20056;-79
2024/01/18 08:15:35;;;;;;;1999.90;999.90;;;-1.90;99.90;;;;;;5023112;28;20037;-77
2024/01/18 08:18:00;;;;;;;1999.90;999.90;;;-1.90;99.90;;;;;;5015961;28;20064;-78
2024/01/18 08:20:26;;;;;;;1999.90;999.90;;;-2.00;99.90;;;;;;5036076;28;20164;-78
2024/01/18 08:22:51;;;;;;;1999.90;999.90;;;-1.90;99.90;;;;;;5033193;28;20029;-79
2024/01/18 08:25:17;;;;;;;1999.90;999.90;;;-2.00;99.90;;;;;;5016161;28;20060;-78
2024/01/18 08:27:43;;;;;;;1999.90;999.90;;;-1.70;99.90;;;;;;5013646;28;20120;-77
2024/01/18 08:30:09;;;;;;;1999.90;999.90;;;-1.90;99.90;;;;;;5014505;28;20398;-78
2024/01/18 08:32:35;;;;;;;1999.90;999.90;;;-2.00;99.90;;;;;;5029787;28;20033;-77
2024/01/18 08:35:08;;;;;;;1999.90;999.90;;;-2.00;99.90;;;;;;5013419;28;20128;-77
2024/01/18 08:37:35;;;;;;;1999.90;999.90;;;-2.00;99.90;;;;;;5013677;28;20280;-77
2024/01/18 08:40:02;;;;;;;1999.90;999.90;;;-2.00;99.90;;;;;;5017059;28;20053;-78
2024/01/18 08:42:27;;;;;;;1999.90;999.90;;;-2.00;99.90;;;;;;5020032;28;20125;-79
2024/01/18 08:44:56;;;;;;;1999.90;999.90;;;-2.00;99.90;;;;;;5037533;28;20470;-79
2024/01/18 08:47:22;;;;;;;1999.90;999.90;;;-2.00;99.90;;;;;;5022386;28;20045;-80
2024/01/18 08:49:48;;;;;;;1999.90;999.90;;;-2.00;99.90;;;;;;5022848;28;20048;-80
2024/01/18 08:52:14;;;;;;;1999.90;999.90;;;-2.00;99.90;;;;;;5019967;28;20041;-79
2024/01/18 08:54:41;;;;;;;1999.90;999.90;;;-2.00;99.90;;;;;;5019637;28;20033;-79
2024/01/18 08:57:07;;;;;;;1999.90;999.90;;;-1.90;99.90;;;;;;5038010;28;20478;-79
2024/01/18 08:59:33;;;;;;;1999.90;999.90;;;-0.20;99.90;;;;;;5020815;28;20113;-79
2024/01/18 09:01:59;;;;;;;1999.90;999.90;;;-1.00;99.90;;;;;;5021697;28;20044;-80
2024/01/18 09:04:25;;;;;;;1999.90;999.90;;;-1.70;99.90;;;;;;5038329;28;20042;-79
2024/01/18 09:06:51;;;;;;;1999.90;999.90;;;-1.60;99.90;;;;;;5019557;28;20087;-79
2024/01/18 09:09:17;;;;;;;1999.90;999.90;;;-0.30;99.90;;;;;;5018989;28;20064;-80
2024/01/18 09:11:43;;;;;;;1999.90;999.90;;;-1.20;99.90;;;;;;5017577;28;20540;-78
2024/01/18 09:14:08;;;;;;;1999.90;999.90;;;-1.00;99.90;;;;;;5020041;28;20060;-80
2024/01/18 09:16:34;;;;;;;1999.90;999.90;;;-0.90;99.90;;;;;;5021027;28;20051;-79
2024/01/18 09:19:00;;;;;;;1999.90;999.90;;;-0.90;99.90;;;;;;5039537;28;20493;-79
2024/01/18 09:21:26;;;;;;;1999.90;999.90;;;-0.70;99.90;;;;;;5023965;28;20038;-79
2024/01/18 09:23:52;;;;;;;1999.90;999.90;;;0.40;99.90;;;;;;5040354;28;20045;-79
2024/01/18 09:26:17;;;;;;;1999.90;999.90;;;0.70;99.90;;;;;;5023654;28;20204;-79
2024/01/18 09:28:44;;;;;;;1999.90;999.90;;;0.00;99.90;;;;;;5023050;28;20033;-79
2024/01/18 09:31:10;;;;;;;1999.90;999.90;;;-0.10;99.90;;;;;;5023003;28;20070;-80
2024/01/18 09:33:39;;;;;;;1999.90;999.90;;;-0.30;99.90;;;;;;5022595;28;20453;-78
2024/01/18 09:36:05;;;;;;;1999.90;999.90;;;-0.70;99.90;;;;;;5020119;28;20363;-78
2024/01/18 09:38:33;;;;;;;1999.90;999.90;;;-0.70;99.90;;;;;;5035395;28;20130;-79
2024/01/18 09:41:07;;;;;;;1999.90;999.90;;;-0.70;99.90;;;;;;5035818;28;20037;-78
2024/01/18 09:43:37;;;;;;;1999.90;999.90;;;-0.60;99.90;;;;;;5020324;28;20108;-80
2024/01/18 09:46:07;;;;;;;1999.90;999.90;;;-0.60;99.90;;;;;;5020075;28;20059;-79
2024/01/18 09:48:34;;;;;;;1999.90;999.90;;;-0.60;99.90;;;;;;5036887;28;20037;-78
2024/01/18 09:51:01;;;;;;;1999.90;999.90;;;-0.60;99.90;;;;;;5023311;28;20037;-79
2024/01/18 09:53:27;;;;;;;1999.90;999.90;;;-0.60;99.90;;;;;;5019198;28;20033;-78
2024/01/18 09:55:53;;;;;;;1999.90;999.90;;;-0.50;99.90;;;;;;5018797;28;20034;-79
2024/01/18 09:58:19;;;;;;;1999.90;999.90;;;-0.40;99.90;;;;;;5034069;28;20047;-78
2024/01/18 10:00:55;;;;;;;1999.90;999.90;;;-0.40;99.90;;;;;;5013490;28;20037;-77
2024/01/18 10:03:21;;;;;;;1999.90;999.90;;;-0.30;99.90;;;;;;5029872;28;20049;-77
2024/01/18 10:05:47;;;;;;;1999.90;999.90;;;-0.20;99.90;;;;;;5033945;28;20037;-77
2024/01/18 10:08:13;;;;;;;1999.90;999.90;;;0.00;99.90;;;;;;5034172;28;20506;-77
2024/01/18 10:10:38;;;;;;;1999.90;999.90;;;0.20;99.90;;;;;;5035001;28;20052;-76
2024/01/18 10:13:04;;;;;;;1999.90;999.90;;;0.50;99.90;;;;;;5016523;28;20501;-77
2024/01/18 10:15:32;;;;;;;1999.90;999.90;;;0.80;99.90;;;;;;5033221;28;20043;-78
2024/01/18 10:17:59;;;;;;;1999.90;999.90;;;1.00;99.90;;;;;;5018602;28;20057;-79
2024/01/18 10:20:26;;;;;;;1999.90;999.90;;;1.20;99.90;;;;;;5022885;28;20045;-80
2024/01/18 10:22:53;;;;;;;1999.90;999.90;;;1.40;99.90;;;;;;5041746;28;20506;-79
2024/01/18 10:25:33;;;;;;;1999.90;999.90;;;1.40;99.90;;;;;;5040974;28;20041;-79
2024/01/18 10:27:59;;;;;;;1999.90;999.90;;;1.50;99.90;;;;;;5013635;28;20153;-79
2024/01/18 10:30:25;;;;;;;1999.90;999.90;;;1.60;99.90;;;;;;5020965;28;20048;-79
2024/01/18 10:32:51;;;;;;;1999.90;999.90;;;1.70;99.90;;;;;;5037757;28;20044;-77
2024/01/18 10:35:19;;;;;;;1999.90;999.90;;;1.50;99.90;;;;;;5034045;28;20049;-78
2024/01/18 10:37:45;;;;;;;1999.90;999.90;;;1.50;99.90;;;;;;5033194;28;20053;-78
2024/01/18 10:40:19;;;;;;;1999.90;999.90;;;1.50;99.90;;;;;;5032891;28;20125;-77
2024/01/18 10:42:46;;;;;;;1999.90;999.90;;;1.60;99.90;;;;;;5034658;28;20072;-79
2024/01/18 10:45:12;;;;;;;1999.90;999.90;;;1.60;99.90;;;;;;5017101;28;20051;-78
2024/01/18 10:47:38;;;;;;;1999.90;999.90;;;1.70;99.90;;;;;;5016332;28;20120;-78
2024/01/18 10:50:06;;;;;;;1999.90;999.90;;;1.70;99.90;;;;;;5015862;28;20060;-77
2024/01/18 10:52:35;;;;;;;1999.90;999.90;;;1.80;99.90;;;;;;5032963;28;20049;-77
2024/01/18 10:55:06;;;;;;;1999.90;999.90;;;2.50;99.90;;;;;;5016636;28;20049;-78
2024/01/18 10:57:31;;;;;;;1999.90;999.90;;;1.90;99.90;;;;;;5032441;28;20037;-77
2024/01/18 10:59:59;;;;;;;1999.90;999.90;;;2.00;99.90;;;;;;5016416;28;20500;-80
2024/01/18 11:02:25;;;;;;;1999.90;999.90;;;2.00;99.90;;;;;;5016869;28;20049;-79
2024/01/18 11:04:52;;;;;;;1999.90;999.90;;;2.00;99.90;;;;;;5032513;28;20383;-77
2024/01/18 11:07:19;;;;;;;1999.90;999.90;;;2.00;99.90;;;;;;5016158;28;20138;-78
2024/01/18 11:09:46;;;;;;;1999.90;999.90;;;2.00;99.90;;;;;;5015621;28;20056;-78
2024/01/18 11:12:13;;;;;;;1999.90;999.90;;;2.10;99.90;;;;;;5018146;28;20058;-79
2024/01/18 11:14:40;;;;;;;1999.90;999.90;;;2.00;99.90;;;;;;5021498;28;20188;-79
2024/01/18 11:17:16;;;;;;;1999.90;999.90;;;2.10;99.90;;;;;;5022502;28;20052;-79
2024/01/18 11:19:43;;;;;;;1999.90;999.90;;;2.20;99.90;;;;;;5022785;28;20064;-80
2024/01/18 11:22:10;;;;;;;1999.90;999.90;;;2.30;99.90;;;;;;5024166;28;20109;-80
2024/01/18 11:24:37;;;;;;;1999.90;999.90;;;2.40;99.90;;;;;;5021501;28;20037;-79
2024/01/18 11:27:19;;;;;;;1999.90;999.90;;;2.50;99.90;;;;;;5037124;28;20399;-79
2024/01/18 11:29:49;;;;;;;1999.90;999.90;;;2.30;99.90;;;;;;5036351;28;20525;-79
2024/01/18 11:32:17;;;;;;;1999.90;999.90;;;2.20;99.90;;;;;;5018627;28;20080;-77
2024/01/18 11:34:45;;;;;;;1999.90;999.90;;;2.10;99.90;;;;;;5018076;28;20060;-78
2024/01/18 11:37:16;;;;;;;1999.90;999.90;;;2.20;99.90;;;;;;5032675;28;20091;-78
2024/01/18 11:39:47;;;;;;;1999.90;999.90;;;2.20;99.90;;;;;;5019050;28;20037;-79
2024/01/18 11:42:21;;;;;;;1999.90;999.90;;;2.20;99.90;;;;;;5029293;28;20312;-78
2024/01/18 11:44:56;;;;;;;1999.90;999.90;;;2.20;99.90;;;;;;5014531;28;20389;-78
2024/01/18 11:47:23;;;;;;;1999.90;999.90;;;2.10;99.90;;;;;;5014488;28;20080;-78
2024/01/18 11:49:49;;;;;;;1999.90;999.90;;;2.00;99.90;;;;;;5014168;28;20609;-78
2024/01/18 11:52:16;;;;;;;1999.90;999.90;;;1.90;99.90;;;;;;5030684;28;20081;-78
2024/01/18 11:54:43;;;;;;;1999.90;999.90;;;1.80;99.90;;;;;;5013266;28;20042;-78
2024/01/18 11:57:14;;;;;;;1999.90;999.90;;;1.80;99.90;;;;;;5014317;28;20418;-79